createdAt,value
2022-10-01T00:02:29.503Z,98464.37
2022-10-01T00:05:01.588Z,98462.77
2022-10-01T00:07:38.171Z,98461.51
2022-10-01T00:10:11.896Z,98455.77
2022-10-01T00:12:48.758Z,98454.20
2022-10-01T00:15:21.946Z,98458.23
2022-10-01T00:17:54.012Z,98462.69
2022-10-01T00:20:25.668Z,98464.11
2022-10-01T00:22:57.133Z,98464.05
2022-10-01T00:25:28.688Z,98465.53
2022-10-01T00:28:00.266Z,98462.64
2022-10-01T00:30:32.104Z,98465.91
2022-10-01T00:33:03.954Z,98472.30
2022-10-01T00:35:35.531Z,98468.21
2022-10-01T00:38:07.061Z,98469.30
2022-10-01T00:40:38.510Z,98466.65
2022-10-01T00:43:24.428Z,98466.98
2022-10-01T00:45:59.711Z,98467.76
2022-10-01T00:48:37.365Z,98464.34
2022-10-01T00:51:09.004Z,98469.98
2022-10-01T00:53:41.806Z,98470.78
2022-10-01T00:56:13.449Z,98467.39
2022-10-01T00:58:45.216Z,98462.36
2022-10-01T01:01:16.717Z,98461.84
2022-10-01T01:03:48.790Z,98465.80
2022-10-01T01:06:20.488Z,98471.24
2022-10-01T01:08:55.254Z,98465.34
2022-10-01T01:11:35.619Z,98458.86
2022-10-01T01:14:18.085Z,98456.44
2022-10-01T01:16:57.227Z,98458.60
2022-10-01T01:19:44.849Z,98457.77
2022-10-01T01:22:19.286Z,98456.86
2022-10-01T01:24:58.213Z,98456.66
2022-10-01T01:27:41.232Z,98457.20
2022-10-01T01:30:15.503Z,98455.89
2022-10-01T01:32:53.884Z,98453.35
2022-10-01T01:35:32.375Z,98458.30
2022-10-01T01:38:08.547Z,98461.86
2022-10-01T01:40:43.062Z,98458.83
2022-10-01T01:43:20.667Z,98459.63
2022-10-01T01:45:55.297Z,98459.15
2022-10-01T01:48:27.881Z,98462.61
2022-10-01T01:51:09.778Z,98461.92
2022-10-01T01:53:42.022Z,98458.98
2022-10-01T01:56:13.595Z,98456.91
2022-10-01T01:58:46.071Z,98460.66
2022-10-01T02:01:35.601Z,98464.42
2022-10-01T02:04:12.004Z,98463.33
2022-10-01T02:07:01.377Z,98465.80
2022-10-01T02:09:38.140Z,98460.05
2022-10-01T02:12:22.830Z,98457.02
2022-10-01T02:15:01.143Z,98461.17
2022-10-01T02:17:39.768Z,98461.64
2022-10-01T02:20:21.256Z,98460.58
2022-10-01T02:22:57.603Z,98464.70
2022-10-01T02:25:35.649Z,98466.52
2022-10-01T02:28:12.540Z,98472.34
2022-10-01T02:30:45.524Z,98474.82
2022-10-01T02:33:20.254Z,98472.61
2022-10-01T02:35:54.741Z,98478.68
2022-10-01T02:38:27.432Z,98478.30
2022-10-01T02:41:05.140Z,98481.33
2022-10-01T02:43:42.952Z,98479.79
2022-10-01T02:46:22.621Z,98475.37
2022-10-01T02:48:54.236Z,98475.29
2022-10-01T02:51:35.989Z,98467.77
2022-10-01T02:54:14.663Z,98467.54
2022-10-01T02:57:04.241Z,98467.24
2022-10-01T02:59:35.707Z,98470.08
2022-10-01T03:02:07.408Z,98474.20
2022-10-01T03:04:39.204Z,98478.31
2022-10-01T03:07:10.760Z,98475.88
2022-10-01T03:09:42.339Z,98474.92
2022-10-01T03:12:13.879Z,98474.19
2022-10-01T03:14:45.780Z,98473.10
2022-10-01T03:17:18.245Z,98471.20
2022-10-01T03:19:49.881Z,98465.98
2022-10-01T03:22:23.284Z,98465.70
2022-10-01T03:24:55.234Z,98462.06
2022-10-01T03:27:26.760Z,98462.19
2022-10-01T03:29:58.357Z,98459.36
2022-10-01T03:32:29.912Z,98458.66
2022-10-01T03:35:01.765Z,98452.45
2022-10-01T03:37:33.320Z,98446.90
2022-10-01T03:40:05.342Z,98448.71
2022-10-01T03:42:36.853Z,98452.71
2022-10-01T03:45:10.104Z,98452.88
2022-10-01T03:47:41.691Z,98451.33
2022-10-01T03:50:13.979Z,98453.14
2022-10-01T03:52:46.222Z,98448.08
2022-10-01T03:55:17.903Z,98448.77
2022-10-01T03:57:50.470Z,98446.67
2022-10-01T04:00:22.137Z,98440.16
2022-10-01T04:02:53.644Z,98432.84
2022-10-01T04:05:25.772Z,98429.16
2022-10-01T04:07:58.027Z,98427.11
2022-10-01T04:10:30.200Z,98425.63
2022-10-01T04:13:01.845Z,98422.48
2022-10-01T04:15:34.046Z,98416.71
2022-10-01T04:18:06.289Z,98414.90
2022-10-01T04:20:39.593Z,98415.48
2022-10-01T04:23:11.093Z,98411.92
2022-10-01T04:25:42.538Z,98413.73
2022-10-01T04:28:14.902Z,98414.27
2022-10-01T04:30:47.967Z,98410.84
2022-10-01T04:33:19.518Z,98408.52
2022-10-01T04:35:51.074Z,98411.37
2022-10-01T04:38:22.515Z,98411.34
2022-10-01T04:40:53.882Z,98411.20
2022-10-01T04:43:25.285Z,98408.41
2022-10-01T04:45:56.873Z,98409.55
2022-10-01T04:48:28.439Z,98414.48
2022-10-01T04:51:00.498Z,98414.44
2022-10-01T04:53:32.053Z,98414.78
2022-10-01T04:56:04.642Z,98414.70
2022-10-01T04:58:36.191Z,98417.82
2022-10-01T05:01:07.870Z,98417.96
2022-10-01T05:03:40.004Z,98416.55
2022-10-01T05:06:11.468Z,98415.48
2022-10-01T05:08:42.918Z,98417.84
2022-10-01T05:11:14.362Z,98422.67
2022-10-01T05:13:45.928Z,98428.04
2022-10-01T05:16:17.440Z,98428.58
2022-10-01T05:18:49.234Z,98426.36
2022-10-01T05:21:20.859Z,98423.41
2022-10-01T05:23:52.582Z,98423.14
2022-10-01T05:26:24.117Z,98425.64
2022-10-01T05:28:55.877Z,98421.46
2022-10-01T05:31:27.982Z,98421.66
2022-10-01T05:33:59.703Z,98415.02
2022-10-01T05:36:31.135Z,98416.77
2022-10-01T05:39:02.744Z,98415.61
2022-10-01T05:41:34.395Z,98419.91
2022-10-01T05:44:06.969Z,98418.81
2022-10-01T05:46:38.485Z,98418.36
2022-10-01T05:49:10.859Z,98417.80
2022-10-01T05:51:42.313Z,98413.23
2022-10-01T05:54:16.300Z,98417.40
2022-10-01T05:56:48.298Z,98418.29
2022-10-01T05:59:19.821Z,98415.41
2022-10-01T06:01:51.296Z,98417.16
2022-10-01T06:04:22.881Z,98419.77
2022-10-01T06:06:56.300Z,98417.02
2022-10-01T06:09:27.723Z,98415.29
2022-10-01T06:11:59.157Z,98417.14
2022-10-01T06:14:30.713Z,98415.52
2022-10-01T06:17:02.269Z,98413.48
2022-10-01T06:19:33.824Z,98411.15
2022-10-01T06:22:05.280Z,98414.15
2022-10-01T06:24:36.731Z,98411.13
2022-10-01T06:27:08.105Z,98404.41
2022-10-01T06:29:39.640Z,98408.94
2022-10-01T06:32:14.372Z,98411.49
2022-10-01T06:34:45.762Z,98406.56
2022-10-01T06:37:17.717Z,98403.56
2022-10-01T06:39:49.345Z,98404.08
2022-10-01T06:42:20.789Z,98406.63
2022-10-01T06:44:52.243Z,98402.53
2022-10-01T06:47:23.698Z,98401.82
2022-10-01T06:49:55.151Z,98408.80
2022-10-01T06:52:44.420Z,98409.27
2022-10-01T06:55:16.878Z,98412.20
2022-10-01T06:57:50.487Z,98412.52
2022-10-01T07:00:22.160Z,98415.45
2022-10-01T07:02:54.440Z,98415.45
2022-10-01T07:05:26.847Z,98414.66
2022-10-01T07:07:58.469Z,98410.80
2022-10-01T07:10:30.125Z,98407.39
2022-10-01T07:13:09.326Z,98405.62
2022-10-01T07:15:41.145Z,98404.13
2022-10-01T07:18:13.920Z,98405.08
2022-10-01T07:20:45.343Z,98402.81
2022-10-01T07:23:17.838Z,98399.31
2022-10-01T07:25:49.276Z,98399.42
2022-10-01T07:28:25.849Z,98399.68
2022-10-01T07:31:03.447Z,98396.12
2022-10-01T07:33:35.247Z,98393.19
2022-10-01T07:36:08.816Z,98385.86
2022-10-01T07:38:40.676Z,98387.55
2022-10-01T07:41:12.091Z,98385.55
2022-10-01T07:43:44.197Z,98387.61
2022-10-01T07:46:15.725Z,98385.54
2022-10-01T07:48:49.265Z,98381.34
2022-10-01T07:51:21.221Z,98378.90
2022-10-01T07:53:52.774Z,98381.14
2022-10-01T07:56:24.853Z,98379.50
2022-10-01T07:58:59.343Z,98378.94
2022-10-01T08:01:32.016Z,98383.02
2022-10-01T08:04:25.929Z,98384.98
2022-10-01T08:06:57.480Z,98377.11
2022-10-01T08:09:29.035Z,98377.87
2022-10-01T08:12:00.466Z,98373.88
2022-10-01T08:14:31.939Z,98373.30
2022-10-01T08:17:03.391Z,98371.36
2022-10-01T08:19:36.014Z,98368.95
2022-10-01T08:22:07.738Z,98374.73
2022-10-01T08:24:39.996Z,98370.91
2022-10-01T08:27:11.550Z,98366.10
2022-10-01T08:29:43.519Z,98364.87
2022-10-01T08:32:14.891Z,98366.45
2022-10-01T08:34:46.760Z,98365.48
2022-10-01T08:37:18.386Z,98364.88
2022-10-01T08:39:49.938Z,98361.05
2022-10-01T08:42:34.589Z,98350.60
2022-10-01T08:45:13.768Z,98355.06
2022-10-01T08:47:52.338Z,98354.23
2022-10-01T08:50:37.316Z,98346.84
2022-10-01T08:53:14.195Z,98345.96
2022-10-01T08:55:48.411Z,98347.61
2022-10-01T08:58:27.646Z,98348.28
2022-10-01T09:00:59.355Z,98347.04
2022-10-01T09:03:33.526Z,98343.05
2022-10-01T09:06:19.204Z,98338.89
2022-10-01T09:09:15.544Z,98339.75
2022-10-01T09:12:03.302Z,98338.55
2022-10-01T09:14:54.974Z,98344.02
2022-10-01T09:17:45.186Z,98338.80
2022-10-01T09:20:27.094Z,98335.58
2022-10-01T09:23:14.896Z,98330.31
2022-10-01T09:25:49.740Z,98334.36
2022-10-01T09:28:24.971Z,98333.73
2022-10-01T09:31:01.880Z,98335.20
2022-10-01T09:33:36.229Z,98332.28
2022-10-01T09:36:17.878Z,98326.77
2022-10-01T09:38:58.038Z,98321.60
2022-10-01T09:41:31.772Z,98318.98
2022-10-01T09:44:03.954Z,98312.77
2022-10-01T09:46:36.474Z,98314.13
2022-10-01T09:49:14.892Z,98312.30
2022-10-01T09:51:51.054Z,98316.52
2022-10-01T09:54:31.224Z,98316.30
2022-10-01T09:57:09.334Z,98316.36
2022-10-01T09:59:48.342Z,98314.33
2022-10-01T10:02:25.755Z,98314.45
2022-10-01T10:05:05.902Z,98304.06
2022-10-01T10:07:40.834Z,98303.36
2022-10-01T10:10:25.462Z,98305.46
2022-10-01T10:13:05.686Z,98300.60
2022-10-01T10:15:41.382Z,98293.30
2022-10-01T10:18:21.583Z,98288.42
2022-10-01T10:20:57.388Z,98288.34
2022-10-01T10:23:29.578Z,98286.26
2022-10-01T10:26:03.187Z,98284.79
2022-10-01T10:28:46.234Z,98276.55
2022-10-01T10:31:21.165Z,98273.86
2022-10-01T10:33:57.531Z,98264.91
2022-10-01T10:36:34.288Z,98257.83
2022-10-01T10:39:08.205Z,98255.29
2022-10-01T10:41:38.964Z,98247.30
2022-10-01T10:44:16.302Z,98241.34
2022-10-01T10:46:48.948Z,98236.45
2022-10-01T10:49:26.393Z,98236.41
2022-10-01T10:52:00.975Z,98230.22
2022-10-01T10:54:34.821Z,98224.40
2022-10-01T10:57:21.264Z,98218.98
2022-10-01T11:00:01.298Z,98217.11
2022-10-01T11:02:35.459Z,98213.09
2022-10-01T11:05:18.838Z,98208.74
2022-10-01T11:07:54.483Z,98199.16
2022-10-01T11:10:35.707Z,98194.13
2022-10-01T11:13:26.467Z,98180.27
2022-10-01T11:16:14.233Z,98172.08
2022-10-01T11:19:01.423Z,98165.85
2022-10-01T11:21:48.845Z,98158.34
2022-10-01T11:24:34.740Z,98148.63
2022-10-01T11:27:12.631Z,98144.73
2022-10-01T11:29:57.403Z,98139.11
2022-10-01T11:32:36.946Z,98132.07
2022-10-01T11:35:28.174Z,98127.12
2022-10-01T11:38:19.994Z,98125.30
2022-10-01T11:40:56.269Z,98124.52
2022-10-01T11:43:33.171Z,98115.19
2022-10-01T11:46:09.365Z,98116.11
2022-10-01T11:48:46.178Z,98117.70
2022-10-01T11:51:20.822Z,98114.05
2022-10-01T11:53:56.673Z,98107.45
2022-10-01T11:56:51.938Z,98104.05
2022-10-01T11:59:29.775Z,98102.15
2022-10-01T12:02:15.513Z,98100.01
2022-10-01T12:04:51.107Z,98095.29
2022-10-01T12:07:30.066Z,98092.69
2022-10-01T12:10:13.975Z,98093.90
2022-10-01T12:12:49.355Z,98090.70
2022-10-01T12:15:26.982Z,98092.83
2022-10-01T12:18:06.642Z,98091.73
2022-10-01T12:20:42.614Z,98095.38
2022-10-01T12:23:20.018Z,98091.86
2022-10-01T12:25:58.417Z,98090.05
2022-10-01T12:28:38.682Z,98084.07
2022-10-01T12:31:17.645Z,98077.57
2022-10-01T12:34:06.985Z,98071.33
2022-10-01T12:36:53.490Z,98070.31
2022-10-01T12:39:40.150Z,98067.51
2022-10-01T12:42:33.464Z,98064.70
2022-10-01T12:45:20.587Z,98062.57
2022-10-01T12:48:01.485Z,98061.18
2022-10-01T12:50:43.470Z,98058.95
2022-10-01T12:53:40.437Z,98066.13
2022-10-01T12:56:17.980Z,98063.25
2022-10-01T12:59:06.484Z,98057.36
2022-10-01T13:01:52.803Z,98052.02
2022-10-01T13:04:43.158Z,98052.04
2022-10-01T13:07:29.645Z,98047.17
2022-10-01T13:10:13.710Z,98045.91
2022-10-01T13:12:58.068Z,98040.55
2022-10-01T13:15:35.236Z,98041.74
2022-10-01T13:18:21.136Z,98039.94
2022-10-01T13:21:07.221Z,98038.81
2022-10-01T13:23:48.608Z,98036.69
2022-10-01T13:26:29.171Z,98035.80
2022-10-01T13:29:15.584Z,98036.34
2022-10-01T13:31:58.117Z,98036.52
2022-10-01T13:34:39.890Z,98031.85
2022-10-01T13:37:34.925Z,98026.17
2022-10-01T13:40:22.115Z,98025.27
2022-10-01T13:42:56.845Z,98022.40
2022-10-01T13:45:34.365Z,98014.46
2022-10-01T13:48:20.316Z,98015.48
2022-10-01T13:51:03.821Z,98009.38
2022-10-01T13:53:39.227Z,98008.23
2022-10-01T13:56:13.182Z,98007.11
2022-10-01T13:58:46.280Z,98005.29
2022-10-01T14:01:38.405Z,98003.99
2022-10-01T14:04:21.182Z,98008.08
2022-10-01T14:06:54.874Z,98008.59
2022-10-01T14:09:27.342Z,98002.81
2022-10-01T14:12:24.025Z,98001.70
2022-10-01T14:15:16.855Z,97998.75
2022-10-01T14:17:51.446Z,97996.05
2022-10-01T14:20:26.099Z,97995.97
2022-10-01T14:23:10.248Z,97989.62
2022-10-01T14:25:53.917Z,97984.02
2022-10-01T14:28:39.171Z,97981.12
2022-10-01T14:31:16.420Z,97979.19
2022-10-01T14:34:06.837Z,97976.73
2022-10-01T14:36:42.756Z,97967.90
2022-10-01T14:39:20.035Z,97960.86
2022-10-01T14:41:53.689Z,97959.48
2022-10-01T14:44:25.477Z,97954.77
2022-10-01T14:46:58.637Z,97950.94
2022-10-01T14:49:32.065Z,97952.55
2022-10-01T14:52:06.571Z,97951.43
2022-10-01T14:54:45.911Z,97943.70
2022-10-01T14:57:25.748Z,97944.78
2022-10-01T14:59:59.239Z,97940.67
2022-10-01T15:02:30.793Z,97939.64
2022-10-01T15:05:02.507Z,97942.41
2022-10-01T15:07:36.895Z,97939.31
2022-10-01T15:10:17.050Z,97933.82
2022-10-01T15:12:51.563Z,97929.02
2022-10-01T15:15:25.819Z,97927.40
2022-10-01T15:17:57.439Z,97923.98
2022-10-01T15:20:30.241Z,97924.33
2022-10-01T15:23:01.991Z,97924.25
2022-10-01T15:25:34.234Z,97919.36
2022-10-01T15:28:16.842Z,97918.72
2022-10-01T15:30:48.424Z,97920.73
2022-10-01T15:33:29.322Z,97919.01
2022-10-01T15:36:04.110Z,97920.49
2022-10-01T15:38:37.285Z,97921.11
2022-10-01T15:41:31.058Z,97920.70
2022-10-01T15:44:06.626Z,97923.27
2022-10-01T15:46:38.304Z,97920.00
2022-10-01T15:49:20.883Z,97919.83
2022-10-01T15:52:15.206Z,97919.98
2022-10-01T15:54:48.461Z,97922.44
2022-10-01T15:57:22.213Z,97918.61
2022-10-01T15:59:57.883Z,97918.20
2022-10-01T16:02:33.299Z,97915.52
2022-10-01T16:05:09.066Z,97910.86
2022-10-01T16:07:40.699Z,97918.90
2022-10-01T16:10:33.680Z,97914.92
2022-10-01T16:13:39.421Z,97918.36
2022-10-01T16:16:24.162Z,97917.80
2022-10-01T16:18:58.712Z,97910.58
2022-10-01T16:21:30.294Z,97914.52
2022-10-01T16:24:02.017Z,97912.73
2022-10-01T16:26:38.046Z,97908.36
2022-10-01T16:29:26.046Z,97908.99
2022-10-01T16:31:58.325Z,97905.31
2022-10-01T16:34:30.042Z,97904.41
2022-10-01T16:37:01.594Z,97896.18
2022-10-01T16:39:33.159Z,97890.34
2022-10-01T16:42:23.478Z,97890.59
2022-10-01T16:44:56.021Z,97893.42
2022-10-01T16:47:27.598Z,97895.76
2022-10-01T16:49:59.241Z,97896.58
2022-10-01T16:52:30.726Z,97896.56
2022-10-01T16:55:02.143Z,97892.92
2022-10-01T16:57:33.991Z,97895.91
2022-10-01T17:00:06.583Z,97890.48
2022-10-01T17:02:38.129Z,97890.33
2022-10-01T17:05:19.156Z,97887.56
2022-10-01T17:07:51.169Z,97879.78
2022-10-01T17:10:24.269Z,97882.05
2022-10-01T17:12:56.665Z,97878.73
2022-10-01T17:15:29.484Z,97877.33
2022-10-01T17:18:01.391Z,97866.45
2022-10-01T17:20:33.967Z,97871.41
2022-10-01T17:23:06.025Z,97867.48
2022-10-01T17:25:39.902Z,97862.09
2022-10-01T17:28:14.795Z,97863.33
2022-10-01T17:30:48.284Z,97870.11
2022-10-01T17:33:20.965Z,97864.64
2022-10-01T17:35:55.667Z,97867.81
2022-10-01T17:38:28.249Z,97861.27
2022-10-01T17:41:02.389Z,97861.67
2022-10-01T17:43:33.930Z,97859.88
2022-10-01T17:46:05.494Z,97858.73
2022-10-01T17:48:37.022Z,97856.69
2022-10-01T17:51:13.694Z,97858.67
2022-10-01T17:53:45.291Z,97858.81
2022-10-01T17:56:19.043Z,97858.27
2022-10-01T17:58:50.479Z,97853.87
2022-10-01T18:01:23.166Z,97858.66
2022-10-01T18:03:57.678Z,97862.41
2022-10-01T18:06:29.610Z,97863.06
2022-10-01T18:09:01.745Z,97868.66
2022-10-01T18:11:34.161Z,97868.95
2022-10-01T18:14:07.683Z,97877.59
2022-10-01T18:16:38.466Z,97880.16
2022-10-01T18:22:11.865Z,97883.67
2022-10-01T18:24:45.831Z,97884.28
2022-10-01T18:27:17.475Z,97891.91
2022-10-01T18:29:49.026Z,97912.43
2022-10-01T18:32:22.534Z,97922.44
2022-10-01T18:34:58.076Z,97929.05
2022-10-01T18:37:40.581Z,97935.16
2022-10-01T18:40:17.567Z,97942.38
2022-10-01T18:42:54.219Z,97942.96
2022-10-01T18:45:36.092Z,97943.80
2022-10-01T18:48:27.365Z,97944.55
2022-10-01T18:51:08.750Z,97946.19
2022-10-01T18:54:00.777Z,97946.98
2022-10-01T18:56:35.161Z,97953.49
2022-10-01T18:59:33.797Z,97952.34
2022-10-01T19:02:23.170Z,97956.98
2022-10-01T19:05:30.157Z,97952.98
2022-10-01T19:08:11.337Z,97955.85
2022-10-01T19:10:50.181Z,97960.69
2022-10-01T19:13:30.630Z,97963.53
2022-10-01T19:16:13.621Z,97966.48
2022-10-01T19:19:01.901Z,97966.84
2022-10-01T19:21:39.803Z,97971.68
2022-10-01T19:24:45.353Z,97979.52
2022-10-01T19:27:32.567Z,97984.64
2022-10-01T19:30:20.290Z,97989.86
2022-10-01T19:32:57.910Z,97992.73
2022-10-01T19:35:33.858Z,97997.50
2022-10-01T19:38:12.070Z,97994.67
2022-10-01T19:40:47.562Z,97994.58
2022-10-01T19:43:24.191Z,98000.56
2022-10-01T19:46:00.569Z,97999.64
2022-10-01T19:48:44.515Z,98000.59
2022-10-01T19:51:21.097Z,97999.63
2022-10-01T19:54:00.298Z,97999.44
2022-10-01T19:56:34.812Z,98000.84
2022-10-01T19:59:13.976Z,97996.63
2022-10-01T20:01:53.698Z,97998.94
2022-10-01T20:04:32.649Z,97997.20
2022-10-01T20:07:13.998Z,97998.48
2022-10-01T20:09:48.163Z,97995.61
2022-10-01T20:12:29.852Z,97999.63
2022-10-01T20:15:16.045Z,98001.53
2022-10-01T20:18:03.859Z,98003.64
2022-10-01T20:20:41.075Z,98007.45
2022-10-01T20:23:33.486Z,98013.41
2022-10-01T20:26:16.829Z,98019.27
2022-10-01T20:29:06.025Z,98023.16
2022-10-01T20:31:45.082Z,98019.01
2022-10-01T20:34:25.411Z,98020.87
2022-10-01T20:37:09.454Z,98021.52
2022-10-01T20:39:42.241Z,98024.67
2022-10-01T20:42:20.872Z,98022.89
2022-10-01T20:44:54.181Z,98026.49
2022-10-01T20:47:31.227Z,98022.09
2022-10-01T20:50:10.461Z,98026.70
2022-10-01T20:52:52.575Z,98025.92
2022-10-01T20:55:29.378Z,98028.48
2022-10-01T20:58:04.585Z,98027.64
2022-10-01T21:00:38.660Z,98033.08
2022-10-01T21:03:20.488Z,98028.83
2022-10-01T21:05:55.944Z,98028.49
2022-10-01T21:08:38.653Z,98031.27
2022-10-01T21:11:16.642Z,98030.98
2022-10-01T21:13:56.814Z,98032.63
2022-10-01T21:17:01.039Z,98036.06
2022-10-01T21:20:03.015Z,98046.27
2022-10-01T21:22:51.551Z,98044.63
2022-10-01T21:25:29.679Z,98047.27
2022-10-01T21:28:27.585Z,98052.70
2022-10-01T21:31:12.528Z,98049.64
2022-10-01T21:33:54.004Z,98046.71
2022-10-01T21:36:34.546Z,98045.65
2022-10-01T21:39:12.456Z,98050.92
2022-10-01T21:42:01.825Z,98049.13
2022-10-01T21:45:14.406Z,98051.50
2022-10-01T21:48:14.683Z,98047.98
2022-10-01T21:50:54.133Z,98045.66
2022-10-01T21:53:43.378Z,98052.21
2022-10-01T21:56:39.118Z,98052.55
2022-10-01T21:59:23.759Z,98051.23
2022-10-01T22:02:07.292Z,98055.08
2022-10-01T22:04:47.891Z,98055.99
2022-10-01T22:07:28.327Z,98062.27
2022-10-01T22:10:10.333Z,98060.15
2022-10-01T22:12:43.938Z,98060.19
2022-10-01T22:15:25.123Z,98065.00
2022-10-01T22:17:58.409Z,98066.80
2022-10-01T22:20:34.340Z,98068.73
2022-10-01T22:23:10.116Z,98070.38
2022-10-01T22:25:48.036Z,98071.35
2022-10-01T22:28:25.885Z,98070.70
2022-10-01T22:31:01.168Z,98072.64
2022-10-01T22:33:38.346Z,98064.73
2022-10-01T22:36:16.044Z,98064.46
2022-10-01T22:38:53.815Z,98071.48
2022-10-01T22:41:31.852Z,98071.64
2022-10-01T22:44:11.505Z,98070.73
2022-10-01T22:47:10.707Z,98075.23
2022-10-01T22:49:55.270Z,98078.32
2022-10-01T22:52:34.230Z,98075.77
2022-10-01T22:55:18.243Z,98081.44
2022-10-01T22:57:57.254Z,98083.44
2022-10-01T23:00:28.685Z,98082.07
2022-10-01T23:03:12.760Z,98080.64
2022-10-01T23:05:51.277Z,98081.90
2022-10-01T23:08:37.485Z,98087.55
2022-10-01T23:11:18.970Z,98089.02
2022-10-01T23:14:00.551Z,98092.56
2022-10-01T23:16:44.365Z,98089.16
2022-10-01T23:19:30.601Z,98092.39
2022-10-01T23:22:08.163Z,98099.96
2022-10-01T23:24:54.502Z,98101.20
2022-10-01T23:27:38.134Z,98103.75
2022-10-01T23:30:14.379Z,98108.02
2022-10-01T23:33:18.011Z,98111.83
2022-10-01T23:36:02.872Z,98113.77
2022-10-01T23:38:52.441Z,98114.40
2022-10-01T23:41:32.420Z,98114.20
2022-10-01T23:44:11.636Z,98114.65
2022-10-01T23:46:47.185Z,98114.80
2022-10-01T23:49:20.074Z,98120.11
2022-10-01T23:51:56.943Z,98122.21
2022-10-01T23:54:34.443Z,98122.18
2022-10-01T23:57:10.819Z,98123.13
2022-10-01T23:59:46.630Z,98123.21
